sensor_id;sensor_type;location;lat;lon;timestamp;temperature;humidity
18898;DHT22;9581;49.484;8.556;2024-02-04T00:02:00;9.00;99.90
18898;DHT22;9581;49.484;8.556;2024-02-04T00:04:28;9.00;99.90
18898;DHT22;9581;49.484;8.556;2024-02-04T00:06:55;9.00;99.90
18898;DHT22;9581;49.484;8.556;2024-02-04T00:09:22;9.00;99.90
18898;DHT22;9581;49.484;8.556;2024-02-04T00:11:49;8.90;99.90
18898;DHT22;9581;49.484;8.556;2024-02-04T00:14:16;9.00;99.90
18898;DHT22;9581;49.484;8.556;2024-02-04T00:16:43;9.00;99.90
18898;DHT22;9581;49.484;8.556;2024-02-04T00:19:11;9.10;99.90
18898;DHT22;9581;49.484;8.556;2024-02-04T00:21:38;9.00;99.90
18898;DHT22;9581;49.484;8.556;2024-02-04T00:24:05;9.00;99.90
18898;DHT22;9581;49.484;8.556;2024-02-04T00:26:31;9.00;99.90
18898;DHT22;9581;49.484;8.556;2024-02-04T00:28:58;8.90;99.90
18898;DHT22;9581;49.484;8.556;2024-02-04T00:31:25;9.00;99.90
18898;DHT22;9581;49.484;8.556;2024-02-04T00:33:51;8.90;99.90
18898;DHT22;9581;49.484;8.556;2024-02-04T00:36:19;8.90;99.90
18898;DHT22;9581;49.484;8.556;2024-02-04T00:38:47;8.90;99.90
18898;DHT22;9581;49.484;8.556;2024-02-04T00:41:13;8.90;99.90
18898;DHT22;9581;49.484;8.556;2024-02-04T00:43:40;8.90;99.90
18898;DHT22;9581;49.484;8.556;2024-02-04T00:46:07;8.90;99.90
18898;DHT22;9581;49.484;8.556;2024-02-04T00:48:35;8.90;99.90
18898;DHT22;9581;49.484;8.556;2024-02-04T00:51:02;9.00;99.90
18898;DHT22;9581;49.484;8.556;2024-02-04T00:53:30;8.80;99.90
18898;DHT22;9581;49.484;8.556;2024-02-04T00:55:59;8.90;99.90
18898;DHT22;9581;49.484;8.556;2024-02-04T00:58:26;8.90;99.90
18898;DHT22;9581;49.484;8.556;2024-02-04T01:00:53;9.00;99.90
18898;DHT22;9581;49.484;8.556;2024-02-04T01:03:19;9.00;99.90
18898;DHT22;9581;49.484;8.556;2024-02-04T01:05:46;9.00;99.90
18898;DHT22;9581;49.484;8.556;2024-02-04T01:08:13;9.00;99.90
18898;DHT22;9581;49.484;8.556;2024-02-04T01:10:41;8.90;99.90
18898;DHT22;9581;49.484;8.556;2024-02-04T01:13:07;8.90;99.90
18898;DHT22;9581;49.484;8.556;2024-02-04T01:15:34;9.00;99.90
18898;DHT22;9581;49.484;8.556;2024-02-04T01:18:01;8.90;99.90
18898;DHT22;9581;49.484;8.556;2024-02-04T01:20:28;8.90;99.90
18898;DHT22;9581;49.484;8.556;2024-02-04T01:22:54;9.00;99.90
18898;DHT22;9581;49.484;8.556;2024-02-04T01:25:21;8.90;99.90
18898;DHT22;9581;49.484;8.556;2024-02-04T01:27:49;8.90;99.90
18898;DHT22;9581;49.484;8.556;2024-02-04T01:30:16;8.90;99.90
18898;DHT22;9581;49.484;8.556;2024-02-04T01:32:42;8.90;99.90
18898;DHT22;9581;49.484;8.556;2024-02-04T01:35:09;8.80;99.90
18898;DHT22;9581;49.484;8.556;2024-02-04T01:37:36;8.70;99.90
18898;DHT22;9581;49.484;8.556;2024-02-04T01:40:03;8.70;99.90
18898;DHT22;9581;49.484;8.556;2024-02-04T01:42:31;8.70;99.90
18898;DHT22;9581;49.484;8.556;2024-02-04T01:44:59;8.80;99.90
18898;DHT22;9581;49.484;8.556;2024-02-04T01:47:25;8.70;99.90
18898;DHT22;9581;49.484;8.556;2024-02-04T01:49:52;8.70;99.90
18898;DHT22;9581;49.484;8.556;2024-02-04T01:52:19;8.70;99.90
18898;DHT22;9581;49.484;8.556;2024-02-04T01:54:46;8.60;99.90
18898;DHT22;9581;49.484;8.556;2024-02-04T01:57:13;8.70;99.90
18898;DHT22;9581;49.484;8.556;2024-02-04T01:59:40;8.70;99.90
18898;DHT22;9581;49.484;8.556;2024-02-04T02:02:09;8.70;99.90
18898;DHT22;9581;49.484;8.556;2024-02-04T02:04:35;8.60;99.90
18898;DHT22;9581;49.484;8.556;2024-02-04T02:07:02;8.60;99.90
18898;DHT22;9581;49.484;8.556;2024-02-04T02:09:29;8.70;99.90
18898;DHT22;9581;49.484;8.556;2024-02-04T02:12:00;8.60;99.90
18898;DHT22;9581;49.484;8.556;2024-02-04T02:14:30;8.60;99.90
18898;DHT22;9581;49.484;8.556;2024-02-04T02:17:01;8.60;99.90
18898;DHT22;9581;49.484;8.556;2024-02-04T02:19:40;8.80;99.90
18898;DHT22;9581;49.484;8.556;2024-02-04T02:22:19;8.80;99.90
18898;DHT22;9581;49.484;8.556;2024-02-04T02:24:51;8.70;99.90
18898;DHT22;9581;49.484;8.556;2024-02-04T02:27:18;8.70;99.90
18898;DHT22;9581;49.484;8.556;2024-02-04T02:29:45;8.80;99.90
18898;DHT22;9581;49.484;8.556;2024-02-04T02:32:12;8.70;99.90
18898;DHT22;9581;49.484;8.556;2024-02-04T02:34:39;8.70;99.90
18898;DHT22;9581;49.484;8.556;2024-02-04T02:37:16;8.70;99.90
18898;DHT22;9581;49.484;8.556;2024-02-04T02:39:49;8.80;99.90
18898;DHT22;9581;49.484;8.556;2024-02-04T02:42:20;8.80;99.90
18898;DHT22;9581;49.484;8.556;2024-02-04T02:44:49;8.80;99.90
18898;DHT22;9581;49.484;8.556;2024-02-04T02:47:17;8.60;99.90
18898;DHT22;9581;49.484;8.556;2024-02-04T02:49:45;8.80;99.90
18898;DHT22;9581;49.484;8.556;2024-02-04T02:52:11;8.70;99.90
18898;DHT22;9581;49.484;8.556;2024-02-04T02:54:38;8.60;99.90
18898;DHT22;9581;49.484;8.556;2024-02-04T02:57:05;8.70;99.90
18898;DHT22;9581;49.484;8.556;2024-02-04T02:59:33;8.70;99.90
18898;DHT22;9581;49.484;8.556;2024-02-04T03:02:00;8.80;99.90
18898;DHT22;9581;49.484;8.556;2024-02-04T03:04:26;8.70;99.90
18898;DHT22;9581;49.484;8.556;2024-02-04T03:06:53;8.70;99.90
18898;DHT22;9581;49.484;8.556;2024-02-04T03:09:20;8.70;99.90
18898;DHT22;9581;49.484;8.556;2024-02-04T03:11:46;8.70;99.90
18898;DHT22;9581;49.484;8.556;2024-02-04T03:14:16;8.70;99.90
18898;DHT22;9581;49.484;8.556;2024-02-04T03:16:44;8.70;99.90
18898;DHT22;9581;49.484;8.556;2024-02-04T03:19:11;8.80;99.90
18898;DHT22;9581;49.484;8.556;2024-02-04T03:21:38;8.80;99.90
18898;DHT22;9581;49.484;8.556;2024-02-04T03:24:05;8.80;99.90
18898;DHT22;9581;49.484;8.556;2024-02-04T03:26:32;8.90;99.90
18898;DHT22;9581;49.484;8.556;2024-02-04T03:28:58;8.80;99.90
18898;DHT22;9581;49.484;8.556;2024-02-04T03:31:25;8.80;99.90
18898;DHT22;9581;49.484;8.556;2024-02-04T03:33:53;8.70;99.90
18898;DHT22;9581;49.484;8.556;2024-02-04T03:36:22;8.70;99.90
18898;DHT22;9581;49.484;8.556;2024-02-04T03:38:49;8.70;99.90
18898;DHT22;9581;49.484;8.556;2024-02-04T03:41:16;8.80;99.90
18898;DHT22;9581;49.484;8.556;2024-02-04T03:43:43;8.80;99.90
18898;DHT22;9581;49.484;8.556;2024-02-04T03:46:13;8.70;99.90
18898;DHT22;9581;49.484;8.556;2024-02-04T03:48:39;8.80;99.90
18898;DHT22;9581;49.484;8.556;2024-02-04T03:51:07;8.90;99.90
18898;DHT22;9581;49.484;8.556;2024-02-04T03:53:34;8.80;99.90
18898;DHT22;9581;49.484;8.556;2024-02-04T03:56:01;8.90;99.90
18898;DHT22;9581;49.484;8.556;2024-02-04T03:58:27;8.90;99.90
18898;DHT22;9581;49.484;8.556;2024-02-04T04:00:55;8.60;99.90
18898;DHT22;9581;49.484;8.556;2024-02-04T04:03:22;8.60;99.90
18898;DHT22;9581;49.484;8.556;2024-02-04T04:05:49;8.70;99.90
18898;DHT22;9581;49.484;8.556;2024-02-04T04:08:17;8.60;99.90
18898;DHT22;9581;49.484;8.556;2024-02-04T04:10:44;8.60;99.90
18898;DHT22;9581;49.484;8.556;2024-02-04T04:13:11;8.80;99.90
18898;DHT22;9581;49.484;8.556;2024-02-04T04:15:38;8.60;99.90
18898;DHT22;9581;49.484;8.556;2024-02-04T04:18:05;8.50;99.90
18898;DHT22;9581;49.484;8.556;2024-02-04T04:20:31;8.60;99.90
18898;DHT22;9581;49.484;8.556;2024-02-04T04:22:58;8.70;99.90
18898;DHT22;9581;49.484;8.556;2024-02-04T04:25:26;8.60;99.90
18898;DHT22;9581;49.484;8.556;2024-02-04T04:27:53;8.60;99.90
18898;DHT22;9581;49.484;8.556;2024-02-04T04:30:21;8.70;99.90
18898;DHT22;9581;49.484;8.556;2024-02-04T04:32:48;8.70;99.90
18898;DHT22;9581;49.484;8.556;2024-02-04T04:35:15;8.70;99.90
18898;DHT22;9581;49.484;8.556;2024-02-04T04:37:42;8.80;99.90
18898;DHT22;9581;49.484;8.556;2024-02-04T04:40:10;8.90;99.90
18898;DHT22;9581;49.484;8.556;2024-02-04T04:42:38;9.00;99.90
18898;DHT22;9581;49.484;8.556;2024-02-04T04:45:05;9.10;99.90
18898;DHT22;9581;49.484;8.556;2024-02-04T04:47:33;9.20;99.90
18898;DHT22;9581;49.484;8.556;2024-02-04T04:50:00;9.20;99.90
18898;DHT22;9581;49.484;8.556;2024-02-04T04:52:26;9.20;99.90
18898;DHT22;9581;49.484;8.556;2024-02-04T04:54:53;9.30;99.90
18898;DHT22;9581;49.484;8.556;2024-02-04T04:57:19;9.20;99.90
18898;DHT22;9581;49.484;8.556;2024-02-04T04:59:47;9.30;99.90
18898;DHT22;9581;49.484;8.556;2024-02-04T05:02:14;9.20;99.90
18898;DHT22;9581;49.484;8.556;2024-02-04T05:04:42;9.30;99.90
18898;DHT22;9581;49.484;8.556;2024-02-04T05:07:09;9.30;99.90
18898;DHT22;9581;49.484;8.556;2024-02-04T05:09:35;9.20;99.90
18898;DHT22;9581;49.484;8.556;2024-02-04T05:12:03;9.10;99.90
18898;DHT22;9581;49.484;8.556;2024-02-04T05:14:29;9.20;99.90
18898;DHT22;9581;49.484;8.556;2024-02-04T05:16:57;9.10;99.90
18898;DHT22;9581;49.484;8.556;2024-02-04T05:19:24;9.00;99.90
18898;DHT22;9581;49.484;8.556;2024-02-04T05:21:51;9.00;99.90
18898;DHT22;9581;49.484;8.556;2024-02-04T05:24:17;8.90;99.90
18898;DHT22;9581;49.484;8.556;2024-02-04T05:26:44;9.00;99.90
18898;DHT22;9581;49.484;8.556;2024-02-04T05:29:11;9.00;99.90
18898;DHT22;9581;49.484;8.556;2024-02-04T05:31:40;8.90;99.90
18898;DHT22;9581;49.484;8.556;2024-02-04T05:34:09;9.00;99.90
18898;DHT22;9581;49.484;8.556;2024-02-04T05:36:36;9.00;99.90
18898;DHT22;9581;49.484;8.556;2024-02-04T05:39:09;9.00;99.90
18898;DHT22;9581;49.484;8.556;2024-02-04T05:41:37;9.10;99.90
18898;DHT22;9581;49.484;8.556;2024-02-04T05:44:03;9.10;99.90
18898;DHT22;9581;49.484;8.556;2024-02-04T05:46:30;9.10;99.90
18898;DHT22;9581;49.484;8.556;2024-02-04T05:48:57;9.10;99.90
18898;DHT22;9581;49.484;8.556;2024-02-04T05:51:25;9.10;99.90
18898;DHT22;9581;49.484;8.556;2024-02-04T05:53:52;9.10;99.90
18898;DHT22;9581;49.484;8.556;2024-02-04T05:56:18;9.00;99.90
18898;DHT22;9581;49.484;8.556;2024-02-04T05:58:45;9.00;99.90
18898;DHT22;9581;49.484;8.556;2024-02-04T06:01:12;9.00;99.90
18898;DHT22;9581;49.484;8.556;2024-02-04T06:03:39;9.10;99.90
18898;DHT22;9581;49.484;8.556;2024-02-04T06:06:07;9.00;99.90
18898;DHT22;9581;49.484;8.556;2024-02-04T06:08:35;9.00;99.90
18898;DHT22;9581;49.484;8.556;2024-02-04T06:11:02;9.10;99.90
18898;DHT22;9581;49.484;8.556;2024-02-04T06:13:29;9.00;99.90
18898;DHT22;9581;49.484;8.556;2024-02-04T06:15:55;9.00;99.90
18898;DHT22;9581;49.484;8.556;2024-02-04T06:18:22;8.90;99.90
18898;DHT22;9581;49.484;8.556;2024-02-04T06:20:49;8.90;99.90
18898;DHT22;9581;49.484;8.556;2024-02-04T06:23:15;8.80;99.90
18898;DHT22;9581;49.484;8.556;2024-02-04T06:25:45;8.80;99.90
18898;DHT22;9581;49.484;8.556;2024-02-04T06:28:12;8.80;99.90
18898;DHT22;9581;49.484;8.556;2024-02-04T06:30:38;8.80;99.90
18898;DHT22;9581;49.484;8.556;2024-02-04T06:33:05;8.70;99.90
18898;DHT22;9581;49.484;8.556;2024-02-04T06:35:32;8.70;99.90
18898;DHT22;9581;49.484;8.556;2024-02-04T06:37:58;8.70;99.90
18898;DHT22;9581;49.484;8.556;2024-02-04T06:40:25;8.70;99.90
18898;DHT22;9581;49.484;8.556;2024-02-04T06:42:53;8.70;99.90
18898;DHT22;9581;49.484;8.556;2024-02-04T06:45:20;8.60;99.90
18898;DHT22;9581;49.484;8.556;2024-02-04T06:47:46;8.70;99.90
18898;DHT22;9581;49.484;8.556;2024-02-04T06:50:13;8.70;99.90
18898;DHT22;9581;49.484;8.556;2024-02-04T06:52:41;8.70;99.90
18898;DHT22;9581;49.484;8.556;2024-02-04T06:55:09;8.70;99.90
18898;DHT22;9581;49.484;8.556;2024-02-04T06:57:35;8.60;99.90
18898;DHT22;9581;49.484;8.556;2024-02-04T07:00:05;8.60;99.90
18898;DHT22;9581;49.484;8.556;2024-02-04T07:02:33;8.50;99.90
18898;DHT22;9581;49.484;8.556;2024-02-04T07:05:00;8.60;99.90
18898;DHT22;9581;49.484;8.556;2024-02-04T07:07:26;8.50;99.90
18898;DHT22;9581;49.484;8.556;2024-02-04T07:09:53;8.50;99.90
18898;DHT22;9581;49.484;8.556;2024-02-04T07:12:20;8.50;99.90
18898;DHT22;9581;49.484;8.556;2024-02-04T07:14:47;8.50;99.90
18898;DHT22;9581;49.484;8.556;2024-02-04T07:17:15;8.50;99.90
18898;DHT22;9581;49.484;8.556;2024-02-04T07:19:42;8.40;99.90
18898;DHT22;9581;49.484;8.556;2024-02-04T07:22:08;8.50;99.90
18898;DHT22;9581;49.484;8.556;2024-02-04T07:24:35;8.50;99.90
18898;DHT22;9581;49.484;8.556;2024-02-04T07:27:02;8.50;99.90
18898;DHT22;9581;49.484;8.556;2024-02-04T07:29:29;8.50;99.90
18898;DHT22;9581;49.484;8.556;2024-02-04T07:31:56;8.50;99.90
18898;DHT22;9581;49.484;8.556;2024-02-04T07:34:25;8.40;99.90
18898;DHT22;9581;49.484;8.556;2024-02-04T07:36:51;8.50;99.90
18898;DHT22;9581;49.484;8.556;2024-02-04T07:39:18;8.50;99.90
18898;DHT22;9581;49.484;8.556;2024-02-04T07:41:45;8.60;99.90
18898;DHT22;9581;49.484;8.556;2024-02-04T07:44:12;8.50;99.90
18898;DHT22;9581;49.484;8.556;2024-02-04T07:46:39;8.60;99.90
18898;DHT22;9581;49.484;8.556;2024-02-04T07:49:06;8.60;99.90
18898;DHT22;9581;49.484;8.556;2024-02-04T07:51:34;8.70;99.90
18898;DHT22;9581;49.484;8.556;2024-02-04T07:54:01;8.60;99.90
18898;DHT22;9581;49.484;8.556;2024-02-04T07:56:28;8.70;99.90
18898;DHT22;9581;49.484;8.556;2024-02-04T07:58:54;8.70;99.90
18898;DHT22;9581;49.484;8.556;2024-02-04T08:01:21;8.60;99.90
18898;DHT22;9581;49.484;8.556;2024-02-04T08:03:49;8.60;99.90
18898;DHT22;9581;49.484;8.556;2024-02-04T08:06:16;8.60;99.90
18898;DHT22;9581;49.484;8.556;2024-02-04T08:08:44;8.70;99.90
18898;DHT22;9581;49.484;8.556;2024-02-04T08:11:16;8.70;99.90
18898;DHT22;9581;49.484;8.556;2024-02-04T08:13:43;8.70;99.90
18898;DHT22;9581;49.484;8.556;2024-02-04T08:16:09;8.70;99.90
18898;DHT22;9581;49.484;8.556;2024-02-04T08:18:36;8.70;99.90
18898;DHT22;9581;49.484;8.556;2024-02-04T08:21:03;8.80;99.90
18898;DHT22;9581;49.484;8.556;2024-02-04T08:23:30;9.00;99.90
18898;DHT22;9581;49.484;8.556;2024-02-04T08:25:59;9.00;99.90
18898;DHT22;9581;49.484;8.556;2024-02-04T08:28:25;8.90;99.90
18898;DHT22;9581;49.484;8.556;2024-02-04T08:30:52;8.90;99.90
18898;DHT22;9581;49.484;8.556;2024-02-04T08:33:19;9.00;99.90
18898;DHT22;9581;49.484;8.556;2024-02-04T08:35:45;8.90;99.90
18898;DHT22;9581;49.484;8.556;2024-02-04T08:38:12;8.90;99.90
18898;DHT22;9581;49.484;8.556;2024-02-04T08:40:39;8.90;99.90
18898;DHT22;9581;49.484;8.556;2024-02-04T08:43:07;8.80;99.90
18898;DHT22;9581;49.484;8.556;2024-02-04T08:45:33;8.80;99.90
18898;DHT22;9581;49.484;8.556;2024-02-04T08:48:00;8.90;99.90
18898;DHT22;9581;49.484;8.556;2024-02-04T08:50:27;9.00;99.90
18898;DHT22;9581;49.484;8.556;2024-02-04T08:52:53;8.90;99.90
18898;DHT22;9581;49.484;8.556;2024-02-04T08:55:20;9.00;99.90
18898;DHT22;9581;49.484;8.556;2024-02-04T08:57:47;9.00;99.90
18898;DHT22;9581;49.484;8.556;2024-02-04T09:00:16;8.90;99.90
18898;DHT22;9581;49.484;8.556;2024-02-04T09:02:43;9.10;99.90
18898;DHT22;9581;49.484;8.556;2024-02-04T09:05:11;9.20;99.90
18898;DHT22;9581;49.484;8.556;2024-02-04T09:07:38;9.10;99.90
18898;DHT22;9581;49.484;8.556;2024-02-04T09:10:06;9.20;99.90
18898;DHT22;9581;49.484;8.556;2024-02-04T09:12:32;9.30;99.90
18898;DHT22;9581;49.484;8.556;2024-02-04T09:14:59;9.50;99.90
18898;DHT22;9581;49.484;8.556;2024-02-04T09:17:27;9.50;99.90
18898;DHT22;9581;49.484;8.556;2024-02-04T09:19:54;9.50;99.90
18898;DHT22;9581;49.484;8.556;2024-02-04T09:22:20;9.30;99.90
18898;DHT22;9581;49.484;8.556;2024-02-04T09:24:47;9.20;99.90
18898;DHT22;9581;49.484;8.556;2024-02-04T09:27:14;9.40;99.90
18898;DHT22;9581;49.484;8.556;2024-02-04T09:29:41;9.20;99.90
18898;DHT22;9581;49.484;8.556;2024-02-04T09:32:08;9.20;99.90
18898;DHT22;9581;49.484;8.556;2024-02-04T09:34:36;9.30;99.90
18898;DHT22;9581;49.484;8.556;2024-02-04T09:37:03;9.30;99.90
18898;DHT22;9581;49.484;8.556;2024-02-04T09:39:29;9.20;99.90
18898;DHT22;9581;49.484;8.556;2024-02-04T09:41:56;9.20;99.90
18898;DHT22;9581;49.484;8.556;2024-02-04T09:44:23;9.10;99.90
18898;DHT22;9581;49.484;8.556;2024-02-04T09:46:50;9.10;99.90
18898;DHT22;9581;49.484;8.556;2024-02-04T09:49:17;9.20;99.90
18898;DHT22;9581;49.484;8.556;2024-02-04T09:51:45;9.10;99.90
18898;DHT22;9581;49.484;8.556;2024-02-04T09:54:14;9.10;99.90
18898;DHT22;9581;49.484;8.556;2024-02-04T09:56:43;9.10;99.90
18898;DHT22;9581;49.484;8.556;2024-02-04T09:59:10;9.20;99.90
18898;DHT22;9581;49.484;8.556;2024-02-04T10:01:37;9.20;99.90
18898;DHT22;9581;49.484;8.556;2024-02-04T10:04:04;9.30;99.90
18898;DHT22;9581;49.484;8.556;2024-02-04T10:06:31;9.40;99.90
18898;DHT22;9581;49.484;8.556;2024-02-04T10:08:59;9.50;99.90
18898;DHT22;9581;49.484;8.556;2024-02-04T10:11:26;9.40;99.90
18898;DHT22;9581;49.484;8.556;2024-02-04T10:13:53;9.50;99.90
18898;DHT22;9581;49.484;8.556;2024-02-04T10:16:20;9.50;99.90
18898;DHT22;9581;49.484;8.556;2024-02-04T10:18:48;9.60;99.90
18898;DHT22;9581;49.484;8.556;2024-02-04T10:21:16;9.70;99.90
18898;DHT22;9581;49.484;8.556;2024-02-04T10:23:43;9.70;99.90
18898;DHT22;9581;49.484;8.556;2024-02-04T10:26:11;9.70;99.90
18898;DHT22;9581;49.484;8.556;2024-02-04T10:28:38;9.90;99.90
18898;DHT22;9581;49.484;8.556;2024-02-04T10:31:08;10.00;99.90
18898;DHT22;9581;49.484;8.556;2024-02-04T10:33:43;9.90;99.90
18898;DHT22;9581;49.484;8.556;2024-02-04T10:36:10;10.10;99.90
18898;DHT22;9581;49.484;8.556;2024-02-04T10:38:37;10.30;99.90
18898;DHT22;9581;49.484;8.556;2024-02-04T10:41:04;10.30;99.90
18898;DHT22;9581;49.484;8.556;2024-02-04T10:43:34;10.50;99.90
18898;DHT22;9581;49.484;8.556;2024-02-04T10:46:05;10.60;99.90
18898;DHT22;9581;49.484;8.556;2024-02-04T10:48:37;10.40;99.90
18898;DHT22;9581;49.484;8.556;2024-02-04T10:51:12;10.50;99.90
18898;DHT22;9581;49.484;8.556;2024-02-04T10:53:41;10.60;99.90
18898;DHT22;9581;49.484;8.556;2024-02-04T10:56:13;10.50;99.90
18898;DHT22;9581;49.484;8.556;2024-02-04T10:58:40;10.50;99.90
18898;DHT22;9581;49.484;8.556;2024-02-04T11:01:08;10.50;99.90
18898;DHT22;9581;49.484;8.556;2024-02-04T11:03:36;10.60;99.90
18898;DHT22;9581;49.484;8.556;2024-02-04T11:06:03;10.50;99.90
18898;DHT22;9581;49.484;8.556;2024-02-04T11:08:31;10.70;99.90
18898;DHT22;9581;49.484;8.556;2024-02-04T11:10:58;10.70;99.90
18898;DHT22;9581;49.484;8.556;2024-02-04T11:13:26;10.60;99.90
18898;DHT22;9581;49.484;8.556;2024-02-04T11:15:55;10.60;99.90
18898;DHT22;9581;49.484;8.556;2024-02-04T11:18:41;10.70;99.90
18898;DHT22;9581;49.484;8.556;2024-02-04T11:21:24;10.90;99.90
18898;DHT22;9581;49.484;8.556;2024-02-04T11:24:08;10.80;99.90
18898;DHT22;9581;49.484;8.556;2024-02-04T11:26:40;10.70;99.90
18898;DHT22;9581;49.484;8.556;2024-02-04T11:29:08;10.60;99.90
18898;DHT22;9581;49.484;8.556;2024-02-04T11:31:38;10.60;99.90
18898;DHT22;9581;49.484;8.556;2024-02-04T11:34:05;10.60;99.90
18898;DHT22;9581;49.484;8.556;2024-02-04T11:36:38;10.70;99.90
18898;DHT22;9581;49.484;8.556;2024-02-04T11:39:12;10.80;99.90
18898;DHT22;9581;49.484;8.556;2024-02-04T11:41:45;10.80;99.90
18898;DHT22;9581;49.484;8.556;2024-02-04T11:44:12;10.80;99.90
18898;DHT22;9581;49.484;8.556;2024-02-04T11:46:46;10.90;99.90
18898;DHT22;9581;49.484;8.556;2024-02-04T11:49:14;10.90;99.90
18898;DHT22;9581;49.484;8.556;2024-02-04T11:51:45;10.90;99.90
18898;DHT22;9581;49.484;8.556;2024-02-04T11:54:15;10.90;99.90
18898;DHT22;9581;49.484;8.556;2024-02-04T11:56:44;10.80;99.90
18898;DHT22;9581;49.484;8.556;2024-02-04T11:59:11;10.90;99.90
18898;DHT22;9581;49.484;8.556;2024-02-04T12:01:39;10.90;99.90
18898;DHT22;9581;49.484;8.556;2024-02-04T12:04:10;11.00;99.90
18898;DHT22;9581;49.484;8.556;2024-02-04T12:06:38;11.00;99.90
18898;DHT22;9581;49.484;8.556;2024-02-04T12:09:05;11.10;99.90
18898;DHT22;9581;49.484;8.556;2024-02-04T12:11:34;11.10;99.90
18898;DHT22;9581;49.484;8.556;2024-02-04T12:14:01;11.20;99.90
18898;DHT22;9581;49.484;8.556;2024-02-04T12:16:31;11.20;99.90
18898;DHT22;9581;49.484;8.556;2024-02-04T12:18:59;11.10;99.90
18898;DHT22;9581;49.484;8.556;2024-02-04T12:21:26;11.00;99.90
18898;DHT22;9581;49.484;8.556;2024-02-04T12:23:52;11.10;99.90
18898;DHT22;9581;49.484;8.556;2024-02-04T12:26:19;11.10;99.90
18898;DHT22;9581;49.484;8.556;2024-02-04T12:28:48;11.20;99.90
18898;DHT22;9581;49.484;8.556;2024-02-04T12:31:18;11.20;99.90
18898;DHT22;9581;49.484;8.556;2024-02-04T12:33:52;11.30;99.90
18898;DHT22;9581;49.484;8.556;2024-02-04T12:36:20;11.30;99.90
18898;DHT22;9581;49.484;8.556;2024-02-04T12:38:52;11.20;99.90
18898;DHT22;9581;49.484;8.556;2024-02-04T12:41:18;11.30;99.90
18898;DHT22;9581;49.484;8.556;2024-02-04T12:43:50;11.20;99.90
18898;DHT22;9581;49.484;8.556;2024-02-04T12:46:17;11.20;99.90
18898;DHT22;9581;49.484;8.556;2024-02-04T12:48:44;11.20;99.90
18898;DHT22;9581;49.484;8.556;2024-02-04T12:51:11;11.10;99.90
18898;DHT22;9581;49.484;8.556;2024-02-04T12:53:38;11.20;99.90
18898;DHT22;9581;49.484;8.556;2024-02-04T12:56:05;11.20;99.90
18898;DHT22;9581;49.484;8.556;2024-02-04T12:58:41;11.20;99.90
18898;DHT22;9581;49.484;8.556;2024-02-04T13:01:10;11.20;99.90
18898;DHT22;9581;49.484;8.556;2024-02-04T13:03:36;11.10;99.90
18898;DHT22;9581;49.484;8.556;2024-02-04T13:06:03;11.10;99.90
18898;DHT22;9581;49.484;8.556;2024-02-04T13:08:30;11.10;99.90
18898;DHT22;9581;49.484;8.556;2024-02-04T13:10:57;11.10;99.90
18898;DHT22;9581;49.484;8.556;2024-02-04T13:13:24;11.10;99.90
18898;DHT22;9581;49.484;8.556;2024-02-04T13:15:52;11.10;99.90
18898;DHT22;9581;49.484;8.556;2024-02-04T13:18:21;11.00;99.90
18898;DHT22;9581;49.484;8.556;2024-02-04T13:20:47;11.00;99.90
18898;DHT22;9581;49.484;8.556;2024-02-04T13:23:14;11.00;99.90
18898;DHT22;9581;49.484;8.556;2024-02-04T13:25:41;11.00;99.90
18898;DHT22;9581;49.484;8.556;2024-02-04T13:28:08;11.00;99.90
18898;DHT22;9581;49.484;8.556;2024-02-04T13:30:34;11.00;99.90
18898;DHT22;9581;49.484;8.556;2024-02-04T13:33:01;11.00;99.90
18898;DHT22;9581;49.484;8.556;2024-02-04T13:35:30;11.00;99.90
18898;DHT22;9581;49.484;8.556;2024-02-04T13:37:57;11.10;99.90
18898;DHT22;9581;49.484;8.556;2024-02-04T13:40:24;11.00;99.90
18898;DHT22;9581;49.484;8.556;2024-02-04T13:42:50;11.10;99.90
18898;DHT22;9581;49.484;8.556;2024-02-04T13:45:17;11.10;99.90
18898;DHT22;9581;49.484;8.556;2024-02-04T13:47:44;11.10;99.90
18898;DHT22;9581;49.484;8.556;2024-02-04T13:50:11;11.20;99.90
18898;DHT22;9581;49.484;8.556;2024-02-04T13:52:39;11.20;99.90
18898;DHT22;9581;49.484;8.556;2024-02-04T13:55:06;11.20;99.90
18898;DHT22;9581;49.484;8.556;2024-02-04T13:57:34;11.20;99.90
18898;DHT22;9581;49.484;8.556;2024-02-04T14:00:00;11.10;99.90
18898;DHT22;9581;49.484;8.556;2024-02-04T14:02:29;11.10;99.90
18898;DHT22;9581;49.484;8.556;2024-02-04T14:04:56;11.20;99.90
18898;DHT22;9581;49.484;8.556;2024-02-04T14:07:23;11.10;99.90
18898;DHT22;9581;49.484;8.556;2024-02-04T14:09:51;11.10;99.90
18898;DHT22;9581;49.484;8.556;2024-02-04T14:12:17;11.10;99.90
18898;DHT22;9581;49.484;8.556;2024-02-04T14:14:44;11.10;99.90
18898;DHT22;9581;49.484;8.556;2024-02-04T14:17:11;11.10;99.90
18898;DHT22;9581;49.484;8.556;2024-02-04T14:19:37;11.10;99.90
18898;DHT22;9581;49.484;8.556;2024-02-04T14:22:04;11.10;99.90
18898;DHT22;9581;49.484;8.556;2024-02-04T14:24:31;11.10;99.90
18898;DHT22;9581;49.484;8.556;2024-02-04T14:26:59;11.20;99.90
18898;DHT22;9581;49.484;8.556;2024-02-04T14:29:26;11.20;99.90
18898;DHT22;9581;49.484;8.556;2024-02-04T14:31:53;11.30;99.90
18898;DHT22;9581;49.484;8.556;2024-02-04T14:34:21;11.30;99.90
18898;DHT22;9581;49.484;8.556;2024-02-04T14:36:48;11.30;99.90
18898;DHT22;9581;49.484;8.556;2024-02-04T14:39:15;11.30;99.90
18898;DHT22;9581;49.484;8.556;2024-02-04T14:41:42;11.20;99.90
18898;DHT22;9581;49.484;8.556;2024-02-04T14:44:10;11.20;99.90
18898;DHT22;9581;49.484;8.556;2024-02-04T14:46:37;11.20;99.90
18898;DHT22;9581;49.484;8.556;2024-02-04T14:49:04;11.10;99.90
18898;DHT22;9581;49.484;8.556;2024-02-04T14:51:31;11.10;99.90
18898;DHT22;9581;49.484;8.556;2024-02-04T14:53:58;11.10;99.90
18898;DHT22;9581;49.484;8.556;2024-02-04T14:56:24;11.10;99.90
18898;DHT22;9581;49.484;8.556;2024-02-04T14:58:51;11.10;99.90
18898;DHT22;9581;49.484;8.556;2024-02-04T15:01:19;11.00;99.90
18898;DHT22;9581;49.484;8.556;2024-02-04T15:03:46;11.00;99.90
18898;DHT22;9581;49.484;8.556;2024-02-04T15:06:13;11.00;99.90
18898;DHT22;9581;49.484;8.556;2024-02-04T15:08:41;11.00;99.90
18898;DHT22;9581;49.484;8.556;2024-02-04T15:11:07;11.00;99.90
18898;DHT22;9581;49.484;8.556;2024-02-04T15:13:34;11.00;99.90
18898;DHT22;9581;49.484;8.556;2024-02-04T15:16:02;11.00;99.90
18898;DHT22;9581;49.484;8.556;2024-02-04T15:18:31;11.00;99.90
18898;DHT22;9581;49.484;8.556;2024-02-04T15:20:58;10.90;99.90
18898;DHT22;9581;49.484;8.556;2024-02-04T15:23:26;10.90;99.90
18898;DHT22;9581;49.484;8.556;2024-02-04T15:25:53;10.90;99.90
18898;DHT22;9581;49.484;8.556;2024-02-04T15:28:20;10.90;99.90
18898;DHT22;9581;49.484;8.556;2024-02-04T15:30:47;10.90;99.90
18898;DHT22;9581;49.484;8.556;2024-02-04T15:33:14;10.90;99.90
18898;DHT22;9581;49.484;8.556;2024-02-04T15:35:43;10.90;99.90
18898;DHT22;9581;49.484;8.556;2024-02-04T15:38:10;10.90;99.90
18898;DHT22;9581;49.484;8.556;2024-02-04T15:40:36;10.90;99.90
18898;DHT22;9581;49.484;8.556;2024-02-04T15:43:03;10.90;99.90
18898;DHT22;9581;49.484;8.556;2024-02-04T15:45:30;10.90;99.90
18898;DHT22;9581;49.484;8.556;2024-02-04T15:47:57;10.90;99.90
18898;DHT22;9581;49.484;8.556;2024-02-04T15:50:28;10.80;99.90
18898;DHT22;9581;49.484;8.556;2024-02-04T15:52:57;10.80;99.90
18898;DHT22;9581;49.484;8.556;2024-02-04T15:55:25;10.80;99.90
18898;DHT22;9581;49.484;8.556;2024-02-04T15:57:52;10.80;99.90
18898;DHT22;9581;49.484;8.556;2024-02-04T16:00:20;10.80;99.90